createdAt,value
2018-11-05T00:00:14.566Z,19.60
2018-11-05T00:02:44.204Z,17.00
2018-11-05T00:05:12.058Z,18.37
2018-11-05T00:07:39.876Z,19.07
2018-11-05T00:10:12.981Z,21.00
2018-11-05T00:12:40.938Z,18.73
2018-11-05T00:15:09.840Z,19.00
2018-11-05T00:17:37.968Z,19.07
2018-11-05T00:20:06.680Z,17.30
2018-11-05T00:22:34.848Z,16.27
2018-11-05T00:25:02.936Z,20.17
2018-11-05T00:27:32.605Z,20.13
2018-11-05T00:30:00.434Z,18.43
2018-11-05T00:32:28.240Z,19.33
2018-11-05T00:34:56.019Z,19.73
2018-11-05T00:37:24.007Z,21.83
2018-11-05T00:39:51.828Z,18.80
2018-11-05T00:42:19.722Z,18.27
2018-11-05T00:44:47.675Z,20.10
2018-11-05T00:47:15.531Z,20.97
2018-11-05T00:49:45.277Z,20.40
2018-11-05T00:52:13.104Z,19.67
2018-11-05T00:54:45.585Z,25.20
2018-11-05T00:57:13.512Z,19.57
2018-11-05T00:59:42.405Z,18.50
2018-11-05T01:02:12.311Z,18.00
2018-11-05T01:04:40.117Z,18.73
2018-11-05T01:07:07.982Z,18.23
2018-11-05T01:09:37.843Z,22.57
2018-11-05T01:12:05.764Z,19.60
2018-11-05T01:14:33.628Z,22.07
2018-11-05T01:17:01.640Z,22.43
2018-11-05T01:19:29.457Z,20.37
2018-11-05T01:21:58.304Z,21.10
2018-11-05T01:24:27.044Z,25.37
2018-11-05T01:26:54.884Z,18.00
2018-11-05T01:29:23.884Z,18.17
2018-11-05T01:31:51.756Z,20.63
2018-11-05T01:34:19.617Z,23.63
2018-11-05T01:36:48.563Z,22.50
2018-11-05T01:39:16.412Z,22.57
2018-11-05T01:41:44.324Z,22.20
2018-11-05T01:44:12.116Z,21.90
2018-11-05T01:46:39.948Z,19.70
2018-11-05T01:49:11.169Z,25.23
2018-11-05T01:51:38.961Z,20.63
2018-11-05T01:54:06.781Z,19.13
2018-11-05T01:56:35.690Z,22.83
2018-11-05T01:59:03.751Z,21.17
2018-11-05T02:01:32.693Z,23.97
2018-11-05T02:04:00.455Z,27.03
2018-11-05T02:06:28.511Z,23.33
2018-11-05T02:08:56.382Z,21.30
2018-11-05T02:11:24.163Z,22.63
2018-11-05T02:13:56.493Z,19.93
2018-11-05T02:16:24.396Z,23.30
2018-11-05T02:18:52.440Z,19.60
2018-11-05T02:21:20.319Z,21.93
2018-11-05T02:23:48.315Z,24.03
2018-11-05T02:26:18.187Z,23.80
2018-11-05T02:28:45.918Z,19.47
2018-11-05T02:31:13.739Z,22.67
2018-11-05T02:33:41.547Z,18.43
2018-11-05T02:36:11.351Z,20.73
2018-11-05T02:38:39.115Z,20.60
2018-11-05T02:41:06.935Z,23.37
2018-11-05T02:43:34.704Z,25.20
2018-11-05T02:46:02.740Z,19.20
2018-11-05T02:48:30.507Z,23.20
2018-11-05T02:50:59.332Z,21.30
2018-11-05T02:53:27.101Z,20.03
2018-11-05T02:55:54.849Z,21.53
2018-11-05T02:58:24.715Z,24.77
2018-11-05T03:00:55.047Z,23.53
2018-11-05T03:03:23.872Z,22.77
2018-11-05T03:05:51.675Z,21.77
2018-11-05T03:08:22.109Z,22.50
2018-11-05T03:10:49.895Z,26.47
2018-11-05T03:13:17.676Z,28.33
2018-11-05T03:15:45.474Z,27.47
2018-11-05T03:18:13.615Z,30.20
2018-11-05T03:20:41.345Z,29.43
2018-11-05T03:23:09.110Z,27.67
2018-11-05T03:25:36.846Z,25.83
2018-11-05T03:28:05.671Z,27.00
2018-11-05T03:30:35.676Z,23.70
2018-11-05T03:33:03.803Z,35.17
2018-11-05T03:35:31.668Z,40.47
2018-11-05T03:38:00.395Z,36.90
2018-11-05T03:40:28.939Z,38.47
2018-11-05T03:42:56.780Z,38.50
2018-11-05T03:45:24.537Z,24.07
2018-11-05T03:47:52.400Z,24.17
2018-11-05T03:50:20.282Z,22.77
2018-11-05T03:52:49.075Z,22.23
2018-11-05T03:55:18.226Z,22.33
2018-11-05T03:57:46.031Z,31.00
2018-11-05T04:00:14.903Z,26.67
2018-11-05T04:02:42.734Z,28.63
2018-11-05T04:05:10.527Z,28.47
2018-11-05T04:07:39.823Z,26.30
2018-11-05T04:10:08.188Z,23.27
2018-11-05T04:12:35.956Z,23.57
2018-11-05T04:15:09.605Z,22.27
2018-11-05T04:17:37.567Z,29.03
2018-11-05T04:20:07.513Z,24.77
2018-11-05T04:22:36.359Z,18.27
2018-11-05T04:25:04.626Z,22.13
2018-11-05T04:27:32.477Z,20.23
2018-11-05T04:30:00.262Z,19.43
2018-11-05T04:32:28.636Z,19.17
2018-11-05T04:34:58.576Z,20.33
2018-11-05T04:37:26.373Z,18.10
2018-11-05T04:39:55.159Z,20.67
2018-11-05T04:42:23.186Z,25.73
2018-11-05T04:44:50.867Z,26.77
2018-11-05T04:47:23.413Z,27.10
2018-11-05T04:49:52.284Z,30.50
2018-11-05T04:52:20.248Z,35.30
2018-11-05T04:54:48.131Z,28.67
2018-11-05T04:57:15.940Z,34.53
2018-11-05T04:59:43.760Z,43.30
2018-11-05T05:02:11.690Z,36.63
2018-11-05T05:04:39.626Z,36.70
2018-11-05T05:07:07.522Z,33.07
2018-11-05T05:09:35.348Z,34.67
2018-11-05T05:12:03.575Z,36.20
2018-11-05T05:14:32.376Z,34.20
2018-11-05T05:17:00.097Z,34.20
2018-11-05T05:19:27.892Z,36.97
2018-11-05T05:21:55.704Z,33.27
2018-11-05T05:24:24.646Z,32.23
2018-11-05T05:26:52.808Z,36.87
2018-11-05T05:29:21.636Z,35.07
2018-11-05T05:31:50.575Z,40.30
2018-11-05T05:34:18.658Z,38.40
2018-11-05T05:36:46.545Z,45.43
2018-11-05T05:39:14.338Z,37.07
2018-11-05T05:41:47.516Z,36.97
2018-11-05T05:44:15.358Z,32.27
2018-11-05T05:46:43.296Z,33.30
2018-11-05T05:49:11.351Z,39.27
2018-11-05T05:51:39.199Z,34.27
2018-11-05T05:54:07.007Z,29.90
2018-11-05T05:56:35.837Z,28.03
2018-11-05T05:59:04.723Z,22.30
2018-11-05T06:01:33.320Z,20.20
2018-11-05T06:04:01.139Z,15.07
2018-11-05T06:06:29.928Z,14.03
2018-11-05T06:08:59.811Z,21.80
2018-11-05T06:11:27.743Z,24.73
2018-11-05T06:13:56.564Z,21.73
2018-11-05T06:16:25.315Z,25.97
2018-11-05T06:18:53.285Z,28.73
2018-11-05T06:21:22.779Z,38.70
2018-11-05T06:23:51.874Z,40.93
2018-11-05T06:26:20.755Z,40.80
2018-11-05T06:28:54.579Z,31.40
2018-11-05T06:31:22.445Z,30.57
2018-11-05T06:33:50.207Z,39.27
2018-11-05T06:36:18.007Z,38.60
2018-11-05T06:38:45.839Z,39.73
2018-11-05T06:41:13.632Z,45.20
2018-11-05T06:43:42.633Z,59.30
2018-11-05T06:46:10.446Z,45.50
2018-11-05T06:48:38.280Z,46.03
2018-11-05T06:51:06.167Z,42.10
2018-11-05T06:53:33.851Z,30.97
2018-11-05T06:56:01.894Z,33.20
2018-11-05T06:58:31.719Z,38.43
2018-11-05T07:00:59.595Z,54.33
2018-11-05T07:03:27.339Z,42.93
2018-11-05T07:05:56.396Z,42.50
2018-11-05T07:08:24.031Z,47.60
2018-11-05T07:10:56.811Z,44.70
2018-11-05T07:13:24.551Z,47.97
2018-11-05T07:15:52.359Z,44.70
2018-11-05T07:18:20.260Z,43.50
2018-11-05T07:20:47.977Z,36.77
2018-11-05T07:23:17.676Z,39.23
2018-11-05T07:25:45.454Z,41.00
2018-11-05T07:28:17.308Z,42.63
2018-11-05T07:30:45.125Z,45.33
2018-11-05T07:33:12.981Z,34.13
2018-11-05T07:35:40.795Z,34.43
2018-11-05T07:38:09.702Z,33.77
2018-11-05T07:40:37.528Z,23.23
2018-11-05T07:43:05.293Z,17.67
2018-11-05T07:45:34.172Z,21.50
2018-11-05T07:48:02.067Z,21.67
2018-11-05T07:50:31.658Z,32.70
2018-11-05T07:52:59.389Z,27.23
2018-11-05T07:55:27.321Z,37.90
2018-11-05T07:57:55.062Z,41.20
2018-11-05T08:00:28.618Z,40.70
2018-11-05T08:02:57.167Z,35.67
2018-11-05T08:05:26.016Z,30.40
2018-11-05T08:07:54.804Z,26.00
2018-11-05T08:10:23.880Z,27.57
2018-11-05T08:12:51.739Z,24.67
2018-11-05T08:15:22.047Z,25.77
2018-11-05T08:17:50.672Z,22.60
2018-11-05T08:20:19.508Z,20.93
2018-11-05T08:22:47.440Z,19.37
2018-11-05T08:25:15.777Z,21.07
2018-11-05T08:27:43.650Z,23.70
2018-11-05T08:30:13.809Z,20.33
2018-11-05T08:32:42.047Z,24.80
2018-11-05T08:35:10.798Z,20.43
2018-11-05T08:37:41.602Z,24.97
2018-11-05T08:40:13.590Z,23.17
2018-11-05T08:42:41.890Z,25.40
2018-11-05T08:45:10.635Z,26.20
2018-11-05T08:47:38.467Z,23.00
2018-11-05T08:50:08.279Z,25.83
2018-11-05T08:52:36.155Z,20.17
2018-11-05T08:55:04.631Z,21.23
2018-11-05T08:57:32.630Z,27.07
2018-11-05T09:00:00.335Z,25.77
2018-11-05T09:02:28.134Z,26.63
2018-11-05T09:04:57.973Z,23.57
2018-11-05T09:07:25.776Z,23.87
2018-11-05T09:09:54.816Z,30.27
2018-11-05T09:12:22.741Z,25.43
2018-11-05T09:14:51.571Z,25.00
2018-11-05T09:17:19.380Z,22.20
2018-11-05T09:19:47.197Z,22.93
2018-11-05T09:22:15.002Z,24.93
2018-11-05T09:24:44.797Z,17.77
2018-11-05T09:27:12.600Z,21.03
2018-11-05T09:29:40.483Z,24.47
2018-11-05T09:32:08.959Z,21.60
2018-11-05T09:34:36.756Z,20.63
2018-11-05T09:37:04.568Z,21.30
2018-11-05T09:39:32.511Z,19.77
2018-11-05T09:42:00.310Z,21.90
2018-11-05T09:44:39.331Z,21.07
2018-11-05T09:47:07.127Z,23.17
2018-11-05T09:49:34.976Z,24.10
2018-11-05T09:52:02.711Z,24.23
2018-11-05T09:54:31.454Z,39.33
2018-11-05T09:56:59.209Z,38.50
2018-11-05T09:59:26.983Z,38.53
2018-11-05T10:01:54.762Z,21.90
2018-11-05T10:04:22.726Z,23.57
2018-11-05T10:06:50.372Z,21.30
2018-11-05T10:09:18.155Z,17.00
2018-11-05T10:11:45.998Z,23.33
2018-11-05T10:14:13.743Z,24.10
2018-11-05T10:16:43.887Z,19.93
2018-11-05T10:19:11.700Z,18.60
2018-11-05T10:21:39.495Z,17.30
2018-11-05T10:24:07.315Z,17.00
2018-11-05T10:26:35.075Z,17.90
2018-11-05T10:29:03.135Z,23.20
2018-11-05T10:31:30.896Z,16.73
2018-11-05T10:33:58.655Z,22.47
2018-11-05T10:36:26.552Z,20.13
2018-11-05T10:38:54.304Z,21.20
2018-11-05T10:41:24.100Z,16.50
2018-11-05T10:43:51.795Z,22.87
2018-11-05T10:46:20.760Z,16.50
2018-11-05T10:48:48.515Z,22.43
2018-11-05T10:51:17.622Z,19.47
2018-11-05T10:53:46.470Z,20.10
2018-11-05T10:56:15.279Z,23.70
2018-11-05T10:58:43.109Z,25.53
2018-11-05T11:01:15.277Z,24.37
2018-11-05T11:03:48.941Z,22.53
2018-11-05T11:06:16.811Z,18.67
2018-11-05T11:08:49.620Z,22.20
2018-11-05T11:11:17.455Z,20.87
2018-11-05T11:13:50.607Z,21.03
2018-11-05T11:16:18.480Z,23.17
2018-11-05T11:18:46.226Z,21.27
2018-11-05T11:21:14.002Z,22.03
2018-11-05T11:23:42.010Z,18.90
2018-11-05T11:26:14.011Z,18.33
2018-11-05T11:28:42.647Z,18.60
2018-11-05T11:31:11.471Z,24.43
2018-11-05T11:33:39.241Z,20.13
2018-11-05T11:36:08.016Z,18.73
2018-11-05T11:38:35.882Z,22.63
2018-11-05T11:41:03.638Z,20.20
2018-11-05T11:43:31.418Z,18.97
2018-11-05T11:46:03.612Z,25.27
2018-11-05T11:48:31.405Z,19.03
2018-11-05T11:51:03.632Z,19.87
2018-11-05T11:53:31.694Z,20.37
2018-11-05T11:56:00.273Z,22.77
2018-11-05T11:58:29.179Z,17.43
2018-11-05T12:00:58.102Z,20.03
2018-11-05T12:03:27.078Z,22.10
2018-11-05T12:05:54.880Z,18.83
2018-11-05T12:08:22.777Z,18.00
2018-11-05T12:10:50.534Z,21.40
2018-11-05T12:13:19.509Z,18.37
2018-11-05T12:15:48.372Z,20.63
2018-11-05T12:18:16.148Z,19.43
2018-11-05T12:20:44.012Z,20.37
2018-11-05T12:23:11.861Z,19.43
2018-11-05T12:25:39.717Z,19.33
2018-11-05T12:28:08.656Z,19.53
2018-11-05T12:30:36.448Z,15.03
2018-11-05T12:33:04.469Z,17.30
2018-11-05T12:35:32.349Z,18.47
2018-11-05T12:38:00.227Z,14.20
2018-11-05T12:40:32.588Z,14.20
2018-11-05T12:43:00.444Z,14.60
2018-11-05T12:45:28.320Z,15.10
2018-11-05T12:47:56.116Z,16.93
2018-11-05T12:50:25.036Z,16.87
2018-11-05T12:52:54.069Z,19.70
2018-11-05T12:55:24.126Z,15.40
2018-11-05T12:57:51.983Z,12.23
2018-11-05T13:00:21.298Z,14.57
2018-11-05T13:02:56.429Z,14.03
2018-11-05T13:05:25.201Z,12.53
2018-11-05T13:07:53.113Z,13.13
2018-11-05T13:10:21.088Z,17.90
2018-11-05T13:12:49.037Z,17.30
2018-11-05T13:15:16.920Z,17.43
2018-11-05T13:17:44.853Z,12.47
2018-11-05T13:20:15.983Z,13.07
2018-11-05T13:22:43.957Z,14.80
2018-11-05T13:25:13.995Z,16.73
2018-11-05T13:27:47.213Z,9.43
2018-11-05T13:30:15.462Z,12.30
2018-11-05T13:32:44.488Z,9.77
2018-11-05T13:35:18.016Z,11.27
2018-11-05T13:37:46.194Z,10.83
2018-11-05T13:40:15.109Z,12.40
2018-11-05T13:42:43.327Z,11.57
2018-11-05T13:45:12.205Z,9.93
2018-11-05T13:47:41.003Z,12.30
2018-11-05T13:50:10.295Z,10.10
2018-11-05T13:52:38.221Z,11.77
2018-11-05T13:55:09.466Z,11.53
2018-11-05T13:57:43.816Z,16.47
2018-11-05T14:00:14.137Z,11.20
2018-11-05T14:02:44.147Z,9.57
2018-11-05T14:05:13.252Z,11.37
2018-11-05T14:07:47.771Z,10.50
2018-11-05T14:10:16.924Z,11.73
2018-11-05T14:12:46.138Z,10.03
2018-11-05T14:15:15.130Z,15.10
2018-11-05T14:17:43.883Z,11.03
2018-11-05T14:20:13.712Z,10.07
2018-11-05T14:22:43.000Z,14.73
2018-11-05T14:25:12.670Z,15.20
2018-11-05T14:27:41.416Z,13.10
2018-11-05T14:30:12.221Z,15.23
2018-11-05T14:32:45.738Z,13.30
2018-11-05T14:35:13.606Z,15.83
2018-11-05T14:37:41.739Z,14.37
2018-11-05T14:40:11.273Z,15.90
2018-11-05T14:42:41.303Z,12.40
2018-11-05T14:45:12.131Z,15.90
2018-11-05T14:47:40.872Z,16.10
2018-11-05T14:50:10.263Z,14.03
2018-11-05T14:52:39.208Z,11.53
2018-11-05T14:55:10.001Z,14.17
2018-11-05T14:57:37.940Z,18.47
2018-11-05T15:00:09.689Z,15.40
2018-11-05T15:02:39.082Z,16.17
2018-11-05T15:05:07.977Z,13.03
2018-11-05T15:07:38.487Z,10.63
2018-11-05T15:10:08.115Z,9.87
2018-11-05T15:12:38.969Z,12.90
2018-11-05T15:15:08.119Z,10.63
2018-11-05T15:17:36.023Z,13.03
2018-11-05T15:20:05.451Z,16.27
2018-11-05T15:22:32.881Z,11.27
2018-11-05T15:25:04.871Z,15.50
2018-11-05T15:27:33.018Z,17.17
2018-11-05T15:30:02.921Z,17.27
2018-11-05T15:32:36.204Z,14.87
2018-11-05T15:35:04.301Z,18.83
2018-11-05T15:37:32.165Z,18.30
2018-11-05T15:40:03.964Z,17.17
2018-11-05T15:42:31.901Z,16.03
2018-11-05T15:45:06.339Z,15.20
2018-11-05T15:47:36.095Z,18.57
2018-11-05T15:50:07.887Z,18.07
2018-11-05T15:52:38.071Z,19.43
2018-11-05T15:55:05.800Z,15.67
2018-11-05T15:57:35.240Z,14.23
2018-11-05T16:00:03.293Z,15.40
2018-11-05T16:02:31.979Z,15.40
2018-11-05T16:05:02.211Z,14.50
2018-11-05T16:07:29.788Z,12.20
2018-11-05T16:09:57.403Z,9.40
2018-11-05T16:12:25.280Z,14.27
2018-11-05T16:14:52.934Z,12.37
2018-11-05T16:17:20.471Z,25.07
2018-11-05T16:19:48.139Z,21.30
2018-11-05T16:22:15.702Z,27.53
2018-11-05T16:24:43.260Z,113.07
2018-11-05T16:27:10.794Z,74.83
2018-11-05T16:29:39.383Z,58.17
2018-11-05T16:32:06.935Z,46.07
2018-11-05T16:34:34.666Z,52.10
2018-11-05T16:37:02.236Z,33.80
2018-11-05T16:39:29.852Z,24.23
2018-11-05T16:41:57.644Z,24.77
2018-11-05T16:44:25.293Z,18.00
2018-11-05T16:46:52.986Z,13.47
2018-11-05T16:49:21.051Z,17.73
2018-11-05T16:51:49.104Z,19.20
2018-11-05T16:54:16.895Z,19.73
2018-11-05T16:56:44.749Z,22.00
2018-11-05T16:59:12.377Z,21.33
2018-11-05T17:01:40.351Z,26.13
2018-11-05T17:04:07.678Z,24.07
2018-11-05T17:06:35.219Z,25.47
2018-11-05T17:09:03.069Z,22.73
2018-11-05T17:11:30.663Z,20.93
2018-11-05T17:13:58.304Z,23.53
2018-11-05T17:16:26.456Z,16.67
2018-11-05T17:18:55.187Z,13.10
2018-11-05T17:21:23.020Z,14.13
2018-11-05T17:23:50.563Z,13.77
2018-11-05T17:26:18.247Z,11.27
2018-11-05T17:28:45.756Z,12.53
2018-11-05T17:31:13.311Z,11.13
2018-11-05T17:33:40.964Z,11.67
2018-11-05T17:36:08.463Z,10.63
2018-11-05T17:38:36.115Z,15.17
2018-11-05T17:41:05.549Z,10.47
2018-11-05T17:43:33.127Z,9.60
2018-11-05T17:46:00.651Z,24.20
2018-11-05T17:48:28.968Z,13.80
2018-11-05T17:50:56.562Z,12.37
2018-11-05T17:53:24.404Z,11.07
2018-11-05T17:55:51.979Z,12.63
2018-11-05T17:58:19.505Z,22.20
2018-11-05T18:00:47.217Z,20.00
2018-11-05T18:03:14.827Z,25.53
2018-11-05T18:05:42.651Z,17.27
2018-11-05T18:08:10.186Z,22.70
2018-11-05T18:10:37.945Z,17.47
2018-11-05T18:13:05.561Z,17.67
2018-11-05T18:15:33.347Z,14.10
2018-11-05T18:18:00.866Z,12.70
2018-11-05T18:20:28.461Z,13.30
2018-11-05T18:22:56.028Z,17.67
2018-11-05T18:25:23.588Z,20.57
2018-11-05T18:27:51.195Z,17.03
2018-11-05T18:30:18.889Z,19.93
2018-11-05T18:32:46.820Z,19.60
2018-11-05T18:35:14.829Z,15.57
2018-11-05T18:37:43.576Z,26.50
2018-11-05T18:40:12.722Z,33.00
2018-11-05T18:42:40.690Z,32.90
2018-11-05T18:45:08.406Z,34.47
2018-11-05T18:47:36.052Z,30.03
2018-11-05T18:50:05.551Z,33.73
2018-11-05T18:52:33.101Z,34.33
2018-11-05T18:55:00.671Z,35.90
2018-11-05T18:57:28.632Z,34.47
2018-11-05T18:59:56.148Z,34.27
2018-11-05T19:02:28.711Z,30.27
2018-11-05T19:04:56.217Z,26.77
2018-11-05T19:07:23.765Z,34.57
2018-11-05T19:09:51.345Z,25.63
2018-11-05T19:12:18.906Z,35.77
2018-11-05T19:14:46.512Z,32.47
2018-11-05T19:17:14.185Z,33.10
2018-11-05T19:19:41.740Z,29.37
2018-11-05T19:22:09.351Z,38.40
2018-11-05T19:24:36.959Z,28.33
2018-11-05T19:27:04.833Z,30.00
2018-11-05T19:29:32.601Z,28.50
2018-11-05T19:32:00.119Z,30.87
2018-11-05T19:34:28.024Z,27.83
2018-11-05T19:36:55.589Z,33.73
2018-11-05T19:39:23.178Z,38.03
2018-11-05T19:41:50.730Z,31.00
2018-11-05T19:44:18.264Z,31.07
2018-11-05T19:46:45.988Z,24.50
2018-11-05T19:49:13.769Z,31.73
2018-11-05T19:51:41.253Z,28.53
2018-11-05T19:54:08.908Z,25.60
2018-11-05T19:56:36.654Z,21.63
2018-11-05T19:59:04.771Z,23.90
2018-11-05T20:01:32.461Z,20.37
2018-11-05T20:04:00.107Z,29.30
2018-11-05T20:06:28.096Z,30.83
2018-11-05T20:08:55.682Z,34.13
2018-11-05T20:11:23.284Z,32.57
2018-11-05T20:13:51.576Z,25.97
2018-11-05T20:16:19.155Z,33.90
2018-11-05T20:18:46.890Z,36.53
2018-11-05T20:21:14.448Z,32.30
2018-11-05T20:23:42.089Z,38.50
2018-11-05T20:26:09.634Z,30.70
2018-11-05T20:28:37.401Z,25.80
2018-11-05T20:31:05.620Z,26.90
2018-11-05T20:33:33.172Z,34.23
2018-11-05T20:36:00.617Z,29.03
2018-11-05T20:38:28.760Z,31.40
2018-11-05T20:40:56.373Z,27.40
2018-11-05T20:43:24.855Z,21.40
2018-11-05T20:45:52.463Z,16.60
2018-11-05T20:48:19.994Z,14.07
2018-11-05T20:50:47.539Z,11.17
2018-11-05T20:53:15.137Z,20.67
2018-11-05T20:55:42.637Z,13.90
2018-11-05T20:58:10.291Z,10.27
2018-11-05T21:00:37.987Z,7.27
2018-11-05T21:03:05.609Z,8.57
2018-11-05T21:05:33.354Z,10.47
2018-11-05T21:08:00.939Z,12.87
2018-11-05T21:10:29.593Z,14.47
2018-11-05T21:12:57.158Z,16.17
2018-11-05T21:15:24.698Z,23.33
2018-11-05T21:17:52.625Z,15.47
2018-11-05T21:20:20.225Z,15.60
2018-11-05T21:22:48.351Z,15.27
2018-11-05T21:25:15.788Z,17.17
2018-11-05T21:27:43.660Z,14.93
2018-11-05T21:30:13.379Z,13.03
2018-11-05T21:32:40.936Z,12.47
2018-11-05T21:35:10.291Z,20.90
2018-11-05T21:37:39.307Z,23.30
2018-11-05T21:40:07.603Z,21.97
2018-11-05T21:42:35.390Z,21.77
2018-11-05T21:45:03.557Z,19.23
2018-11-05T21:47:31.200Z,17.23
2018-11-05T21:49:58.860Z,19.20
2018-11-05T21:52:26.864Z,16.67
2018-11-05T21:54:54.399Z,16.57
2018-11-05T21:57:22.037Z,14.00
2018-11-05T21:59:49.624Z,15.70
2018-11-05T22:02:17.145Z,26.00
2018-11-05T22:04:44.739Z,21.23
2018-11-05T22:07:12.322Z,21.83
2018-11-05T22:09:39.854Z,19.53
2018-11-05T22:12:07.398Z,23.07
2018-11-05T22:14:34.970Z,24.33
2018-11-05T22:17:02.517Z,22.43
2018-11-05T22:19:30.049Z,22.50
2018-11-05T22:21:57.607Z,19.10
2018-11-05T22:24:25.173Z,17.77
2018-11-05T22:26:52.738Z,18.77
2018-11-05T22:29:20.284Z,25.63
2018-11-05T22:31:47.825Z,24.53
2018-11-05T22:34:15.383Z,20.47
2018-11-05T22:36:42.919Z,17.83
2018-11-05T22:39:10.444Z,21.10
2018-11-05T22:41:38.278Z,19.27
2018-11-05T22:44:05.966Z,18.53
2018-11-05T22:46:33.551Z,17.63
2018-11-05T22:49:01.100Z,16.97
2018-11-05T22:51:28.811Z,16.13
2018-11-05T22:53:56.390Z,21.67
2018-11-05T22:56:23.995Z,15.20
2018-11-05T22:58:51.529Z,11.80
2018-11-05T23:01:24.704Z,17.37
2018-11-05T23:03:52.272Z,19.13
2018-11-05T23:06:19.845Z,10.80
2018-11-05T23:08:47.437Z,15.83
2018-11-05T23:11:15.000Z,25.10
2018-11-05T23:13:42.569Z,18.00
2018-11-05T23:16:10.071Z,15.30
2018-11-05T23:18:37.672Z,18.50
2018-11-05T23:21:05.394Z,16.23
2018-11-05T23:23:33.922Z,14.10
2018-11-05T23:26:01.448Z,16.13
2018-11-05T23:28:29.056Z,16.87
2018-11-05T23:30:56.588Z,13.37
2018-11-05T23:33:24.199Z,14.50
2018-11-05T23:35:51.684Z,11.53
2018-11-05T23:38:19.404Z,10.50
2018-11-05T23:40:46.948Z,15.20
2018-11-05T23:43:14.499Z,24.57
2018-11-05T23:45:42.057Z,15.30
2018-11-05T23:48:09.603Z,16.43
2018-11-05T23:50:37.217Z,13.40
2018-11-05T23:53:04.832Z,10.27
2018-11-05T23:55:32.453Z,19.20
2018-11-05T23:57:59.995Z,22.57
